Terminal Aerodrome Forecast
Issued by NWS Tampa Bay Area, FL

Home | Current Version | Previous Version | Text Only | Print | Product List | Glossary On
Versions: 1 2 3 4 5 6 7 8 9 10 11 12 13 14
000
FTUS42 KTBW 221700
TAFFMY
TAF
KFMY 221730Z 2218/2318 VRB04KT P6SM VCSH SCT020 BKN080
     FM222200 VRB06KT P6SM VCTS SCT030CB BKN090
     FM230500 04008KT P6SM SCT015 BKN030
     FM231300 04012KT P6SM SCT025 BKN035=

USA.gov is the U.S. government's official web portal to all federal, state and local government web resources and services.